VTBU/UTP METAR and TAF weather

Enter ICAO airport designator
Station Type Date Time Source
VTBU METAR 2019/10/15 08:30 UTC NOAA

VTBU 150830Z 17006KT 9999 FEW018CB 31/22 Q1009 NOSIG


Station Type Date Time Source
VTBU Decoded METAR 2019/10/15 08:30 UTC NOAA

Rayong, Thailand (VTBU) 12-38N 101-21E 5M
Oct 15, 2019 - 04:30 AM EDT / 2019.10.15 0830 UTC
Wind: from the S (170 degrees) at 7 MPH (6 KT):0
Visibility: greater than 7 mile(s):0
Sky conditions: mostly clear
Weather: Cumulonimbus clouds observed
Temperature: 87 F (31 C)
Heat index: 92.3 F (33.5 C):1
Dew Point: 71 F (22 C)
Relative Humidity: 58%
Pressure (altimeter): 29.80 in. Hg (1009 hPa)
ob: VTBU 150830Z 17006KT 9999 FEW018CB 31/22 Q1009 NOSIG
cycle: 8

Station Type Date Time Source
VTBU TAF 2019/10/15 06:36 UTC NOAA

TAF VTBU 150500Z 1506/1606 15008KT 9999 FEW020
BECMG 1512/1514 35006KT 8000
BECMG 1602/1604 19008KT

Example: see airport list